Aikou Maru No.28 — JD2869 — position and weather

sailwx.info

Track history (hours):
 
Tides and Currents Weather Stations Pressure Air Temp Water Temp Dewpoint Dewpoint Depression Visibility Wind Speed Wind Dir Waves Ship Positions

Aikou Maru No.28

Last reported at 2017-Dec-17 08:25 UTC. Time now 2017-Dec-17 23:10 UTC.
Position N 33°39' E 130°09'.

Length 75 m; draft 4 m.

Type: Ship (hazmat cat B). MMSI: 431000846.

Date/timePositionNaut miles runAvg speedWind from/ knotsBaromVisibWave heightAir tempDewpointWater temp
2017-Dec-17 08:25N 33°39' E 130°09'511.5
2017-Dec-17 08:00N 33°42' E 130°12'611.3
2017-Dec-17 07:30N 33°46' E 130°18'611.1
2017-Dec-17 07:00N 33°50' E 130°23'611.2
2017-Dec-17 06:30N 33°54' E 130°28'510.1
2017-Dec-17 06:00N 33°57' E 130°31'510.8
2017-Dec-17 05:30N 33°58' E 130°38'510.6
2017-Dec-17 05:00N 33°58' E 130°44'510.2
2017-Dec-17 04:30N 33°58' E 130°50'510.0
2017-Dec-17 04:00N 33°55' E 130°55'510.9
2017-Dec-17 03:30N 33°59' E 130°59'4 8.3
2017-Dec-17 03:00N 33°55' E 131°02'1 1.0
2017-Dec-17 02:29N 33°55' E 131°02'0 0.0
2017-Dec-17 01:59N 33°55' E 131°02'0 0.0
2017-Dec-17 01:29N 33°55' E 131°02'0 0.0
2017-Dec-17 00:59N 33°55' E 131°02'0 0.0
2017-Dec-17 00:29N 33°55' E 131°02'0 0.0
2017-Dec-16 23:59N 33°55' E 131°02'0 0.0
2017-Dec-16 23:29N 33°55' E 131°02'0 0.0
2017-Dec-16 22:59N 33°55' E 131°02'0 0.0
2017-Dec-16 22:29N 33°55' E 131°02'0 0.0
2017-Dec-16 21:59N 33°55' E 131°02'0 0.0
2017-Dec-16 21:29N 33°55' E 131°02'0 0.0
2017-Dec-16 20:59N 33°55' E 131°02'0 0.0
2017-Dec-16 20:29N 33°55' E 131°02'0 0.0
2017-Dec-16 19:59N 33°55' E 131°02'0 0.0
2017-Dec-16 19:29N 33°55' E 131°02'0 0.0
2017-Dec-16 18:59N 33°55' E 131°02'0 0.0
2017-Dec-16 18:29N 33°55' E 131°02'0 0.0
2017-Dec-16 17:59N 33°55' E 131°02'1 2.2
2017-Dec-16 17:31N 33°54' E 131°04'510.0
2017-Dec-16 17:01N 33°53' E 131°09'5 9.7
2017-Dec-16 16:30N 33°51' E 131°15'5 9.7
2017-Dec-16 16:01N 33°51' E 131°21'510.3
2017-Dec-16 15:31N 33°50' E 131°27'510.1
2017-Dec-16 15:01N 33°49' E 131°33'5 9.8
2017-Dec-16 14:30N 33°48' E 131°39'510.0
2017-Dec-16 14:00N 33°47' E 131°45'510.2
2017-Dec-16 13:30N 33°46' E 131°51'910.5
2017-Dec-16 12:40N 33°46' E 132°01'211.4
2017-Dec-16 12:28N 33°46' E 132°04'711.6
2017-Dec-16 11:52N 33°49' E 132°11'411.0
2017-Dec-16 11:30N 33°50' E 132°16'1010.6
2017-Dec-16 10:34N 33°53' E 132°27'110.8
2017-Dec-16 10:30N 33°54' E 132°28'9 9.9
2017-Dec-16 09:36N 33°60' E 132°36'110.4
2017-Dec-16 09:30N 34°01' E 132°37'510.7
2017-Dec-16 09:00N 34°03' E 132°42'  
2017-Dec-12 19:14N 34°04' E 132°45'313.0
2017-Dec-12 19:00N 34°03' E 132°42'612.8
2017-Dec-12 18:31N 33°60' E 132°36'1812.2
2017-Dec-12 17:03N 33°50' E 132°18'811.7
2017-Dec-12 16:22N 33°48' E 132°09'411.5
2017-Dec-12 15:59N 33°45' E 132°04'911.5
2017-Dec-12 15:13N 33°46' E 131°54'312.0
2017-Dec-12 15:00N 33°47' E 131°51'612.0
2017-Dec-12 14:30N 33°48' E 131°44'611.9
2017-Dec-12 14:00N 33°49' E 131°37'612.3
2017-Dec-12 13:30N 33°50' E 131°30'612.1
2017-Dec-12 13:00N 33°51' E 131°22'612.3
2017-Dec-12 12:30N 33°52' E 131°15'612.2
2017-Dec-12 12:00N 33°55' E 131°08'612.1
2017-Dec-12 11:30N 33°58' E 131°02'5 9.3
2017-Dec-12 11:00N 33°57' E 130°57'3 6.7
2017-Dec-12 10:30N 33°55' E 130°53'510.5
2017-Dec-12 10:00N 33°58' E 130°48'611.9
2017-Dec-12 09:30N 33°57' E 130°41'611.7
2017-Dec-12 09:00N 33°57' E 130°34'510.2
2017-Dec-12 08:30N 33°55' E 130°28'611.1
2017-Dec-12 08:00N 33°50' E 130°24'511.0
2017-Dec-12 07:30N 33°46' E 130°19'510.1
2017-Dec-12 06:59N 33°42' E 130°15'510.3
2017-Dec-12 06:30N 33°39' E 130°19'4 8.9
2017-Dec-12 06:00N 33°37' E 130°24'0 0.0
2017-Dec-12 05:30N 33°37' E 130°24'0 0.0
2017-Dec-12 05:00N 33°37' E 130°24'0 0.0
2017-Dec-12 04:30N 33°37' E 130°24'0 0.0
2017-Dec-12 04:00N 33°37' E 130°24'0 0.0
2017-Dec-12 03:30N 33°37' E 130°24'0 0.0
2017-Dec-12 03:00N 33°37' E 130°24'0 0.0
2017-Dec-12 02:30N 33°37' E 130°24'0 0.0
2017-Dec-12 02:00N 33°37' E 130°24'0 0.0
2017-Dec-12 01:30N 33°37' E 130°24'0 0.0
2017-Dec-12 01:00N 33°37' E 130°24'0 0.0
2017-Dec-12 00:30N 33°37' E 130°24'0 0.0
2017-Dec-12 00:00N 33°37' E 130°24'0 0.0
2017-Dec-11 23:30N 33°37' E 130°24'0 0.0
2017-Dec-11 23:00N 33°37' E 130°24'0 0.0
2017-Dec-11 22:30N 33°37' E 130°24'0 0.1
2017-Dec-11 22:00N 33°37' E 130°24'0 0.0
2017-Dec-11 21:30N 33°37' E 130°24'0 0.0
2017-Dec-11 21:00N 33°37' E 130°24'0 0.0
2017-Dec-11 20:30N 33°37' E 130°24'0 0.0
2017-Dec-11 20:00N 33°37' E 130°24'0 0.0
2017-Dec-11 19:30N 33°37' E 130°24'0 0.0
2017-Dec-11 19:00N 33°37' E 130°24'0 0.0
2017-Dec-11 18:30N 33°37' E 130°24'0 0.0
2017-Dec-11 18:00N 33°37' E 130°24'0 0.0
2017-Dec-11 17:30N 33°37' E 130°24'0 0.0
2017-Dec-11 17:00N 33°37' E 130°24'0 0.0
2017-Dec-11 16:30N 33°37' E 130°24'0 0.0
2017-Dec-11 16:00N 33°37' E 130°24'0 0.0
2017-Dec-11 15:30N 33°37' E 130°24'0 0.0
2017-Dec-11 15:00N 33°37' E 130°24'0 0.0
2017-Dec-11 14:30N 33°37' E 130°24'0 0.0
2017-Dec-11 14:00N 33°37' E 130°24'0 0.0
2017-Dec-11 13:30N 33°37' E 130°24'0 0.0
2017-Dec-11 13:00N 33°37' E 130°24'0 0.0
2017-Dec-11 12:30N 33°37' E 130°24'0 0.0
2017-Dec-11 12:00N 33°37' E 130°24'0 0.0
2017-Dec-11 11:30N 33°37' E 130°24'0 0.0
2017-Dec-11 11:00N 33°37' E 130°24'0 0.0
2017-Dec-11 10:30N 33°37' E 130°24'0 0.0
2017-Dec-11 10:00N 33°37' E 130°24'0 0.0
2017-Dec-11 09:30N 33°37' E 130°24'0 0.0
2017-Dec-11 09:00N 33°37' E 130°24'0 0.0
2017-Dec-11 08:30N 33°37' E 130°24'0 0.0
2017-Dec-11 08:00N 33°37' E 130°24'0 0.0
2017-Dec-11 07:30N 33°37' E 130°24'0 0.0
2017-Dec-11 07:00N 33°37' E 130°24'0 0.0
2017-Dec-11 06:30N 33°37' E 130°24'0 0.0
2017-Dec-11 06:00N 33°37' E 130°24'0 0.0
2017-Dec-11 05:30N 33°37' E 130°24'0 0.0
2017-Dec-11 05:00N 33°37' E 130°24'0 0.0
2017-Dec-11 04:30N 33°37' E 130°24'0 0.0
2017-Dec-11 04:00N 33°37' E 130°24'0 0.0
2017-Dec-11 03:30N 33°37' E 130°24'0 0.0
2017-Dec-11 03:00N 33°37' E 130°24'0 0.0
2017-Dec-11 02:30N 33°37' E 130°24'0 0.0
2017-Dec-11 02:00N 33°37' E 130°24'0 0.0
2017-Dec-11 01:30N 33°37' E 130°24'0 0.0
2017-Dec-11 01:00N 33°37' E 130°24'0 0.0
2017-Dec-11 00:30N 33°37' E 130°24'0 0.0
2017-Dec-11 00:00N 33°37' E 130°24'1 2.0
2017-Dec-10 23:30N 33°37' E 130°23'1 2.9
2017-Dec-10 23:00N 33°37' E 130°22'4 8.3
2017-Dec-10 22:30N 33°39' E 130°17'5 9.1
2017-Dec-10 22:00N 33°44' E 130°16'5 9.2
2017-Dec-10 21:30N 33°47' E 130°20'4 8.6
2017-Dec-10 21:00N 33°50' E 130°24'4 9.2
2017-Dec-10 20:30N 33°53' E 130°28'4 8.2
2017-Dec-10 20:00N 33°56' E 130°31'4 8.1
2017-Dec-10 19:30N 33°57' E 130°36'4 7.8
2017-Dec-10 19:00N 33°57' E 130°41'4 8.1
2017-Dec-10 18:30N 33°58' E 130°46'4 9.0
2017-Dec-10 18:00N 33°58' E 130°51'4 8.7
2017-Dec-10 17:31N 33°55' E 130°55'5 9.4
2017-Dec-10 17:00N 33°58' E 130°58'5 9.4
2017-Dec-10 16:30N 33°57' E 131°04'510.7
2017-Dec-10 16:00N 33°54' E 131°09'511.1
2017-Dec-10 15:30N 33°52' E 131°15'611.1
2017-Dec-10 15:00N 33°51' E 131°22'611.0
2017-Dec-10 14:30N 33°50' E 131°28'510.8
2017-Dec-10 14:00N 33°49' E 131°35'610.9
2017-Dec-10 13:30N 33°48' E 131°41'510.6
2017-Dec-10 13:00N 33°47' E 131°48'610.9
2017-Dec-10 12:28N 33°46' E 131°54'510.9
2017-Dec-10 12:00N 33°46' E 132°01'611.3
2017-Dec-10 11:26N 33°48' E 132°08'511.5
2017-Dec-10 10:58N 33°50' E 132°14'511.7
2017-Dec-10 10:30N 33°50' E 132°20'911.4
2017-Dec-10 09:41N 33°53' E 132°31'311.3
2017-Dec-10 09:28N 33°54' E 132°34'610.8
2017-Dec-10 08:56N 33°60' E 132°35'511.7
2017-Dec-10 08:30N 34°03' E 132°40'9210.6
2017-Dec-09 23:48N 34°18' E 134°30'611.7
2017-Dec-09 23:17N 34°16' E 134°37'311.0
2017-Dec-09 22:58N 34°13' E 134°40'610.4
2017-Dec-09 22:26N 34°09' E 134°44'510.6
2017-Dec-09 22:00N 34°06' E 134°48'611.3
2017-Dec-09 21:27N 34°01' E 134°53'611.5
2017-Dec-09 20:57N 33°57' E 134°58'111 8.1
2017-Dec-09 07:13N 34°46' E 136°58'211.8
2017-Dec-09 07:00N 34°48' E 136°57'4 7.1
2017-Dec-09 06:30N 34°52' E 136°56'0 0.1
2017-Dec-09 05:55N 34°52' E 136°56'0 0.1
2017-Dec-09 05:25N 34°52' E 136°56'0 0.1
2017-Dec-09 05:00N 34°52' E 136°56'0 0.2
2017-Dec-09 04:30N 34°52' E 136°56'0 0.1
2017-Dec-09 04:00N 34°52' E 136°56'0 0.0
2017-Dec-09 03:30N 34°52' E 136°56'0 0.1
2017-Dec-09 02:53N 34°52' E 136°56'0 0.1
2017-Dec-09 02:29N 34°52' E 136°56'0 0.0
2017-Dec-09 01:59N 34°52' E 136°56'0 0.2
2017-Dec-09 01:29N 34°52' E 136°56'0 0.1
2017-Dec-09 00:59N 34°52' E 136°56'0 0.0
2017-Dec-09 00:29N 34°52' E 136°56'0 0.0
2017-Dec-08 23:58N 34°52' E 136°56'0 0.2
2017-Dec-08 23:22N 34°52' E 136°56'0 0.1
2017-Dec-08 22:52N 34°52' E 136°56'0 0.2
2017-Dec-08 22:28N 34°52' E 136°56'0 0.0
2017-Dec-08 21:58N 34°52' E 136°56'0 0.1
2017-Dec-08 21:28N 34°52' E 136°56'0 0.0
2017-Dec-08 20:28N 34°52' E 136°56'0 0.0
2017-Dec-08 18:16N 34°52' E 136°56'0 0.0
2017-Dec-08 17:22N 34°52' E 136°56'0 0.0
2017-Dec-08 16:52N 34°52' E 136°56'0 0.0
2017-Dec-08 16:28N 34°52' E 136°56'0 0.0
2017-Dec-08 15:52N 34°52' E 136°56'0 0.0
2017-Dec-08 15:28N 34°52' E 136°56'0 0.1
2017-Dec-08 14:58N 34°52' E 136°56'0 0.1
2017-Dec-08 14:27N 34°52' E 136°56'0 0.0
2017-Dec-08 13:57N 34°52' E 136°56'0 0.1
2017-Dec-08 13:27N 34°52' E 136°56'0 0.1
2017-Dec-08 13:00N 34°52' E 136°56'0 0.1
2017-Dec-08 12:27N 34°52' E 136°56'0 0.1
2017-Dec-08 11:51N 34°52' E 136°56'0 0.1
2017-Dec-08 11:27N 34°52' E 136°56'0 0.0
2017-Dec-08 10:51N 34°52' E 136°56'0 0.0
2017-Dec-08 10:27N 34°52' E 136°56'0 0.0
2017-Dec-08 09:57N 34°52' E 136°56'0 0.0
2017-Dec-08 09:21N 34°52' E 136°56'0 0.1
2017-Dec-08 09:00N 34°52' E 136°56'0 0.1
2017-Dec-08 08:27N 34°52' E 136°56'0 0.1
2017-Dec-08 08:00N 34°52' E 136°56'0 0.0
2017-Dec-08 07:21N 34°52' E 136°56'0 0.1
2017-Dec-08 06:57N 34°52' E 136°56'0 0.0
2017-Dec-08 06:27N 34°52' E 136°56'0 0.1
2017-Dec-08 05:51N 34°52' E 136°56'0 0.1
2017-Dec-08 05:27N 34°52' E 136°56'0 0.1
2017-Dec-08 04:56N 34°52' E 136°56'0 0.0
2017-Dec-08 04:20N 34°52' E 136°56'0 0.1
2017-Dec-08 04:00N 34°52' E 136°56'0 0.0
2017-Dec-08 02:02N 34°52' E 136°56'0 0.5
2017-Dec-08 01:56N 34°52' E 136°56'0 0.1
2017-Dec-08 01:14N 34°52' E 136°56'0 0.1
2017-Dec-08 00:50N 34°52' E 136°56'0 0.1
2017-Dec-07 23:58N 34°52' E 136°56'1 0.9
2017-Dec-07 23:00N 34°52' E 136°57'0 0.1
2017-Dec-07 22:30N 34°52' E 136°57'0 0.1
2017-Dec-07 22:00N 34°52' E 136°57'0 0.0
2017-Dec-07 21:30N 34°52' E 136°57'0 0.1
2017-Dec-07 21:00N 34°52' E 136°57'0 0.0
2017-Dec-07 20:30N 34°52' E 136°57'2 3.9
2017-Dec-07 20:00N 34°50' E 136°57'612.3
2017-Dec-07 19:30N 34°44' E 136°59'612.7
2017-Dec-07 19:00N 34°38' E 136°58'1211.1
2017-Dec-07 17:54N 34°32' E 137°12'7411.2
2017-Dec-07 11:19N 34°35' E 138°41'5 9.7
2017-Dec-07 10:49N 34°35' E 138°47'610.4
2017-Dec-07 10:15N 34°36' E 138°54'412.0
2017-Dec-07 09:53N 34°38' E 138°59'513.1
2017-Dec-07 09:30N 34°41' E 139°03'611.9
2017-Dec-07 08:58N 34°46' E 139°08'  
Track history (hours):
 
Tides and Currents Weather Stations Pressure Air Temp Water Temp Dewpoint Dewpoint Depression Visibility Wind Speed Wind Dir Waves Ship Positions

Aikou Maru No.28

Last reported at 2017-Dec-17 08:25 UTC. Time now 2017-Dec-17 23:10 UTC.
Position N 33°39' E 130°09'.

Length 75 m; draft 4 m.

Type: Ship (hazmat cat B). MMSI: 431000846.

Date/timePositionNaut miles runAvg speedWind from/ knotsBaromVisibWave heightAir tempDewpointWater temp
2017-Dec-17 08:25N 33°39' E 130°09'511.5
2017-Dec-17 08:00N 33°42' E 130°12'611.3
2017-Dec-17 07:30N 33°46' E 130°18'611.1
2017-Dec-17 07:00N 33°50' E 130°23'611.2
2017-Dec-17 06:30N 33°54' E 130°28'510.1
2017-Dec-17 06:00N 33°57' E 130°31'510.8
2017-Dec-17 05:30N 33°58' E 130°38'510.6
2017-Dec-17 05:00N 33°58' E 130°44'510.2
2017-Dec-17 04:30N 33°58' E 130°50'510.0
2017-Dec-17 04:00N 33°55' E 130°55'510.9
2017-Dec-17 03:30N 33°59' E 130°59'4 8.3
2017-Dec-17 03:00N 33°55' E 131°02'1 1.0
2017-Dec-17 02:29N 33°55' E 131°02'0 0.0
2017-Dec-17 01:59N 33°55' E 131°02'0 0.0
2017-Dec-17 01:29N 33°55' E 131°02'0 0.0
2017-Dec-17 00:59N 33°55' E 131°02'0 0.0
2017-Dec-17 00:29N 33°55' E 131°02'0 0.0
2017-Dec-16 23:59N 33°55' E 131°02'0 0.0
2017-Dec-16 23:29N 33°55' E 131°02'0 0.0
2017-Dec-16 22:59N 33°55' E 131°02'0 0.0
2017-Dec-16 22:29N 33°55' E 131°02'0 0.0
2017-Dec-16 21:59N 33°55' E 131°02'0 0.0
2017-Dec-16 21:29N 33°55' E 131°02'0 0.0
2017-Dec-16 20:59N 33°55' E 131°02'0 0.0
2017-Dec-16 20:29N 33°55' E 131°02'0 0.0
2017-Dec-16 19:59N 33°55' E 131°02'0 0.0
2017-Dec-16 19:29N 33°55' E 131°02'0 0.0
2017-Dec-16 18:59N 33°55' E 131°02'0 0.0
2017-Dec-16 18:29N 33°55' E 131°02'0 0.0
2017-Dec-16 17:59N 33°55' E 131°02'1 2.2
2017-Dec-16 17:31N 33°54' E 131°04'510.0
2017-Dec-16 17:01N 33°53' E 131°09'5 9.7
2017-Dec-16 16:30N 33°51' E 131°15'5 9.7
2017-Dec-16 16:01N 33°51' E 131°21'510.3
2017-Dec-16 15:31N 33°50' E 131°27'510.1
2017-Dec-16 15:01N 33°49' E 131°33'5 9.8
2017-Dec-16 14:30N 33°48' E 131°39'510.0
2017-Dec-16 14:00N 33°47' E 131°45'510.2
2017-Dec-16 13:30N 33°46' E 131°51'910.5
2017-Dec-16 12:40N 33°46' E 132°01'211.4
2017-Dec-16 12:28N 33°46' E 132°04'711.6
2017-Dec-16 11:52N 33°49' E 132°11'411.0
2017-Dec-16 11:30N 33°50' E 132°16'1010.6
2017-Dec-16 10:34N 33°53' E 132°27'110.8
2017-Dec-16 10:30N 33°54' E 132°28'9 9.9
2017-Dec-16 09:36N 33°60' E 132°36'110.4
2017-Dec-16 09:30N 34°01' E 132°37'510.7
2017-Dec-16 09:00N 34°03' E 132°42'  
2017-Dec-12 19:14N 34°04' E 132°45'313.0
2017-Dec-12 19:00N 34°03' E 132°42'612.8
2017-Dec-12 18:31N 33°60' E 132°36'1812.2
2017-Dec-12 17:03N 33°50' E 132°18'811.7
2017-Dec-12 16:22N 33°48' E 132°09'411.5
2017-Dec-12 15:59N 33°45' E 132°04'911.5
2017-Dec-12 15:13N 33°46' E 131°54'312.0
2017-Dec-12 15:00N 33°47' E 131°51'612.0
2017-Dec-12 14:30N 33°48' E 131°44'611.9
2017-Dec-12 14:00N 33°49' E 131°37'612.3
2017-Dec-12 13:30N 33°50' E 131°30'612.1
2017-Dec-12 13:00N 33°51' E 131°22'612.3
2017-Dec-12 12:30N 33°52' E 131°15'612.2
2017-Dec-12 12:00N 33°55' E 131°08'612.1
2017-Dec-12 11:30N 33°58' E 131°02'5 9.3
2017-Dec-12 11:00N 33°57' E 130°57'3 6.7
2017-Dec-12 10:30N 33°55' E 130°53'510.5
2017-Dec-12 10:00N 33°58' E 130°48'611.9
2017-Dec-12 09:30N 33°57' E 130°41'611.7
2017-Dec-12 09:00N 33°57' E 130°34'510.2
2017-Dec-12 08:30N 33°55' E 130°28'611.1
2017-Dec-12 08:00N 33°50' E 130°24'511.0
2017-Dec-12 07:30N 33°46' E 130°19'510.1
2017-Dec-12 06:59N 33°42' E 130°15'510.3
2017-Dec-12 06:30N 33°39' E 130°19'4 8.9
2017-Dec-12 06:00N 33°37' E 130°24'0 0.0
2017-Dec-12 05:30N 33°37' E 130°24'0 0.0
2017-Dec-12 05:00N 33°37' E 130°24'0 0.0
2017-Dec-12 04:30N 33°37' E 130°24'0 0.0
2017-Dec-12 04:00N 33°37' E 130°24'0 0.0
2017-Dec-12 03:30N 33°37' E 130°24'0 0.0
2017-Dec-12 03:00N 33°37' E 130°24'0 0.0
2017-Dec-12 02:30N 33°37' E 130°24'0 0.0
2017-Dec-12 02:00N 33°37' E 130°24'0 0.0
2017-Dec-12 01:30N 33°37' E 130°24'0 0.0
2017-Dec-12 01:00N 33°37' E 130°24'0 0.0
2017-Dec-12 00:30N 33°37' E 130°24'0 0.0
2017-Dec-12 00:00N 33°37' E 130°24'0 0.0
2017-Dec-11 23:30N 33°37' E 130°24'0 0.0
2017-Dec-11 23:00N 33°37' E 130°24'0 0.0
2017-Dec-11 22:30N 33°37' E 130°24'0 0.1
2017-Dec-11 22:00N 33°37' E 130°24'0 0.0
2017-Dec-11 21:30N 33°37' E 130°24'0 0.0
2017-Dec-11 21:00N 33°37' E 130°24'0 0.0
2017-Dec-11 20:30N 33°37' E 130°24'0 0.0
2017-Dec-11 20:00N 33°37' E 130°24'0 0.0
2017-Dec-11 19:30N 33°37' E 130°24'0 0.0
2017-Dec-11 19:00N 33°37' E 130°24'0 0.0
2017-Dec-11 18:30N 33°37' E 130°24'0 0.0
2017-Dec-11 18:00N 33°37' E 130°24'0 0.0
2017-Dec-11 17:30N 33°37' E 130°24'0 0.0
2017-Dec-11 17:00N 33°37' E 130°24'0 0.0
2017-Dec-11 16:30N 33°37' E 130°24'0 0.0
2017-Dec-11 16:00N 33°37' E 130°24'0 0.0
2017-Dec-11 15:30N 33°37' E 130°24'0 0.0
2017-Dec-11 15:00N 33°37' E 130°24'0 0.0
2017-Dec-11 14:30N 33°37' E 130°24'0 0.0
2017-Dec-11 14:00N 33°37' E 130°24'0 0.0
2017-Dec-11 13:30N 33°37' E 130°24'0 0.0
2017-Dec-11 13:00N 33°37' E 130°24'0 0.0
2017-Dec-11 12:30N 33°37' E 130°24'0 0.0
2017-Dec-11 12:00N 33°37' E 130°24'0 0.0
2017-Dec-11 11:30N 33°37' E 130°24'0 0.0
2017-Dec-11 11:00N 33°37' E 130°24'0 0.0
2017-Dec-11 10:30N 33°37' E 130°24'0 0.0
2017-Dec-11 10:00N 33°37' E 130°24'0 0.0
2017-Dec-11 09:30N 33°37' E 130°24'0 0.0
2017-Dec-11 09:00N 33°37' E 130°24'0 0.0
2017-Dec-11 08:30N 33°37' E 130°24'0 0.0
2017-Dec-11 08:00N 33°37' E 130°24'0 0.0
2017-Dec-11 07:30N 33°37' E 130°24'0 0.0
2017-Dec-11 07:00N 33°37' E 130°24'0 0.0
2017-Dec-11 06:30N 33°37' E 130°24'0 0.0
2017-Dec-11 06:00N 33°37' E 130°24'0 0.0
2017-Dec-11 05:30N 33°37' E 130°24'0 0.0
2017-Dec-11 05:00N 33°37' E 130°24'0 0.0
2017-Dec-11 04:30N 33°37' E 130°24'0 0.0
2017-Dec-11 04:00N 33°37' E 130°24'0 0.0
2017-Dec-11 03:30N 33°37' E 130°24'0 0.0
2017-Dec-11 03:00N 33°37' E 130°24'0 0.0
2017-Dec-11 02:30N 33°37' E 130°24'0 0.0
2017-Dec-11 02:00N 33°37' E 130°24'0 0.0
2017-Dec-11 01:30N 33°37' E 130°24'0 0.0
2017-Dec-11 01:00N 33°37' E 130°24'0 0.0
2017-Dec-11 00:30N 33°37' E 130°24'0 0.0
2017-Dec-11 00:00N 33°37' E 130°24'1 2.0
2017-Dec-10 23:30N 33°37' E 130°23'1 2.9
2017-Dec-10 23:00N 33°37' E 130°22'4 8.3
2017-Dec-10 22:30N 33°39' E 130°17'5 9.1
2017-Dec-10 22:00N 33°44' E 130°16'5 9.2
2017-Dec-10 21:30N 33°47' E 130°20'4 8.6
2017-Dec-10 21:00N 33°50' E 130°24'4 9.2
2017-Dec-10 20:30N 33°53' E 130°28'4 8.2
2017-Dec-10 20:00N 33°56' E 130°31'4 8.1
2017-Dec-10 19:30N 33°57' E 130°36'4 7.8
2017-Dec-10 19:00N 33°57' E 130°41'4 8.1
2017-Dec-10 18:30N 33°58' E 130°46'4 9.0
2017-Dec-10 18:00N 33°58' E 130°51'4 8.7
2017-Dec-10 17:31N 33°55' E 130°55'5 9.4
2017-Dec-10 17:00N 33°58' E 130°58'5 9.4
2017-Dec-10 16:30N 33°57' E 131°04'510.7
2017-Dec-10 16:00N 33°54' E 131°09'511.1
2017-Dec-10 15:30N 33°52' E 131°15'611.1
2017-Dec-10 15:00N 33°51' E 131°22'611.0
2017-Dec-10 14:30N 33°50' E 131°28'510.8
2017-Dec-10 14:00N 33°49' E 131°35'610.9
2017-Dec-10 13:30N 33°48' E 131°41'510.6
2017-Dec-10 13:00N 33°47' E 131°48'610.9
2017-Dec-10 12:28N 33°46' E 131°54'510.9
2017-Dec-10 12:00N 33°46' E 132°01'611.3
2017-Dec-10 11:26N 33°48' E 132°08'511.5
2017-Dec-10 10:58N 33°50' E 132°14'511.7
2017-Dec-10 10:30N 33°50' E 132°20'911.4
2017-Dec-10 09:41N 33°53' E 132°31'311.3
2017-Dec-10 09:28N 33°54' E 132°34'610.8
2017-Dec-10 08:56N 33°60' E 132°35'511.7
2017-Dec-10 08:30N 34°03' E 132°40'9210.6
2017-Dec-09 23:48N 34°18' E 134°30'611.7
2017-Dec-09 23:17N 34°16' E 134°37'311.0
2017-Dec-09 22:58N 34°13' E 134°40'610.4
2017-Dec-09 22:26N 34°09' E 134°44'510.6
2017-Dec-09 22:00N 34°06' E 134°48'611.3
2017-Dec-09 21:27N 34°01' E 134°53'611.5
2017-Dec-09 20:57N 33°57' E 134°58'111 8.1
2017-Dec-09 07:13N 34°46' E 136°58'211.8
2017-Dec-09 07:00N 34°48' E 136°57'4 7.1
2017-Dec-09 06:30N 34°52' E 136°56'0 0.1
2017-Dec-09 05:55N 34°52' E 136°56'0 0.1
2017-Dec-09 05:25N 34°52' E 136°56'0 0.1
2017-Dec-09 05:00N 34°52' E 136°56'0 0.2
2017-Dec-09 04:30N 34°52' E 136°56'0 0.1
2017-Dec-09 04:00N 34°52' E 136°56'0 0.0
2017-Dec-09 03:30N 34°52' E 136°56'0 0.1
2017-Dec-09 02:53N 34°52' E 136°56'0 0.1
2017-Dec-09 02:29N 34°52' E 136°56'0 0.0
2017-Dec-09 01:59N 34°52' E 136°56'0 0.2
2017-Dec-09 01:29N 34°52' E 136°56'0 0.1
2017-Dec-09 00:59N 34°52' E 136°56'0 0.0
2017-Dec-09 00:29N 34°52' E 136°56'0 0.0
2017-Dec-08 23:58N 34°52' E 136°56'0 0.2
2017-Dec-08 23:22N 34°52' E 136°56'0 0.1
2017-Dec-08 22:52N 34°52' E 136°56'0 0.2
2017-Dec-08 22:28N 34°52' E 136°56'0 0.0
2017-Dec-08 21:58N 34°52' E 136°56'0 0.1
2017-Dec-08 21:28N 34°52' E 136°56'0 0.0
2017-Dec-08 20:28N 34°52' E 136°56'0 0.0
2017-Dec-08 18:16N 34°52' E 136°56'0 0.0
2017-Dec-08 17:22N 34°52' E 136°56'0 0.0
2017-Dec-08 16:52N 34°52' E 136°56'0 0.0
2017-Dec-08 16:28N 34°52' E 136°56'0 0.0
2017-Dec-08 15:52N 34°52' E 136°56'0 0.0
2017-Dec-08 15:28N 34°52' E 136°56'0 0.1
2017-Dec-08 14:58N 34°52' E 136°56'0 0.1
2017-Dec-08 14:27N 34°52' E 136°56'0 0.0
2017-Dec-08 13:57N 34°52' E 136°56'0 0.1
2017-Dec-08 13:27N 34°52' E 136°56'0 0.1
2017-Dec-08 13:00N 34°52' E 136°56'0 0.1
2017-Dec-08 12:27N 34°52' E 136°56'0 0.1
2017-Dec-08 11:51N 34°52' E 136°56'0 0.1
2017-Dec-08 11:27N 34°52' E 136°56'0 0.0
2017-Dec-08 10:51N 34°52' E 136°56'0 0.0
2017-Dec-08 10:27N 34°52' E 136°56'0 0.0
2017-Dec-08 09:57N 34°52' E 136°56'0 0.0
2017-Dec-08 09:21N 34°52' E 136°56'0 0.1
2017-Dec-08 09:00N 34°52' E 136°56'0 0.1
2017-Dec-08 08:27N 34°52' E 136°56'0 0.1
2017-Dec-08 08:00N 34°52' E 136°56'0 0.0
2017-Dec-08 07:21N 34°52' E 136°56'0 0.1
2017-Dec-08 06:57N 34°52' E 136°56'0 0.0
2017-Dec-08 06:27N 34°52' E 136°56'0 0.1
2017-Dec-08 05:51N 34°52' E 136°56'0 0.1
2017-Dec-08 05:27N 34°52' E 136°56'0 0.1
2017-Dec-08 04:56N 34°52' E 136°56'0 0.0
2017-Dec-08 04:20N 34°52' E 136°56'0 0.1
2017-Dec-08 04:00N 34°52' E 136°56'0 0.0
2017-Dec-08 02:02N 34°52' E 136°56'0 0.5
2017-Dec-08 01:56N 34°52' E 136°56'0 0.1
2017-Dec-08 01:14N 34°52' E 136°56'0 0.1
2017-Dec-08 00:50N 34°52' E 136°56'0 0.1
2017-Dec-07 23:58N 34°52' E 136°56'1 0.9
2017-Dec-07 23:00N 34°52' E 136°57'0 0.1
2017-Dec-07 22:30N 34°52' E 136°57'0 0.1
2017-Dec-07 22:00N 34°52' E 136°57'0 0.0
2017-Dec-07 21:30N 34°52' E 136°57'0 0.1
2017-Dec-07 21:00N 34°52' E 136°57'0 0.0
2017-Dec-07 20:30N 34°52' E 136°57'2 3.9
2017-Dec-07 20:00N 34°50' E 136°57'612.3
2017-Dec-07 19:30N 34°44' E 136°59'612.7
2017-Dec-07 19:00N 34°38' E 136°58'1211.1
2017-Dec-07 17:54N 34°32' E 137°12'7411.2
2017-Dec-07 11:19N 34°35' E 138°41'5 9.7
2017-Dec-07 10:49N 34°35' E 138°47'610.4
2017-Dec-07 10:15N 34°36' E 138°54'412.0
2017-Dec-07 09:53N 34°38' E 138°59'513.1
2017-Dec-07 09:30N 34°41' E 139°03'611.9
2017-Dec-07 08:58N 34°46' E 139°08'  

Dump ship's entire track history